createdAt,value
2019-04-06T00:00:41.243Z,8.15
2019-04-06T00:01:41.216Z,8.08
2019-04-06T00:02:41.259Z,8.12
2019-04-06T00:03:41.203Z,8.12
2019-04-06T00:04:41.216Z,8.16
2019-04-06T00:05:41.183Z,8.12
2019-04-06T00:06:41.169Z,8.02
2019-04-06T00:07:41.148Z,8.08
2019-04-06T00:08:41.143Z,8.15
2019-04-06T00:09:41.145Z,8.22
2019-04-06T00:10:41.120Z,8.08
2019-04-06T00:11:41.122Z,8.16
2019-04-06T00:12:41.097Z,8.15
2019-04-06T00:13:41.086Z,8.10
2019-04-06T00:14:41.099Z,8.10
2019-04-06T00:15:41.068Z,8.08
2019-04-06T00:16:41.055Z,8.07
2019-04-06T00:17:41.044Z,8.11
2019-04-06T00:18:41.030Z,8.18
2019-04-06T00:19:41.039Z,8.01
2019-04-06T00:20:41.022Z,8.12
2019-04-06T00:21:41.007Z,8.12
2019-04-06T00:22:40.995Z,8.08
2019-04-06T00:23:40.982Z,8.07
2019-04-06T00:24:41.013Z,8.08
2019-04-06T00:25:44.752Z,8.05
2019-04-06T00:26:40.992Z,8.05
2019-04-06T00:27:40.970Z,8.12
2019-04-06T00:28:40.946Z,8.18
2019-04-06T00:29:40.927Z,8.07
2019-04-06T00:30:40.967Z,8.11
2019-04-06T00:31:40.921Z,8.16
2019-04-06T00:32:40.885Z,8.01
2019-04-06T00:33:40.881Z,8.08
2019-04-06T00:34:40.870Z,8.08
2019-04-06T00:35:40.855Z,8.04
2019-04-06T00:36:40.845Z,8.16
2019-04-06T00:37:40.844Z,8.15
2019-04-06T00:38:40.821Z,8.12
2019-04-06T00:39:40.824Z,8.01
2019-04-06T00:40:40.862Z,8.18
2019-04-06T00:41:40.801Z,8.08
2019-04-06T00:42:40.794Z,8.00
2019-04-06T00:43:40.776Z,8.01
2019-04-06T00:44:40.772Z,8.04
2019-04-06T00:45:40.793Z,8.02
2019-04-06T00:46:40.733Z,8.12
2019-04-06T00:47:40.743Z,8.07
2019-04-06T00:48:40.736Z,8.01
2019-04-06T00:49:40.719Z,8.10
2019-04-06T00:50:40.713Z,8.12
2019-04-06T00:51:40.691Z,8.00
2019-04-06T00:52:40.684Z,8.04
2019-04-06T00:53:40.667Z,8.08
2019-04-06T00:54:40.718Z,8.11
2019-04-06T00:55:40.659Z,8.05
2019-04-06T00:56:40.626Z,8.04
2019-04-06T00:57:40.626Z,8.15
2019-04-06T00:58:40.614Z,8.08
2019-04-06T00:59:40.661Z,8.10
2019-04-06T01:00:40.599Z,8.16
2019-04-06T01:01:40.592Z,8.00
2019-04-06T01:02:40.585Z,8.16
2019-04-06T01:03:40.557Z,8.04
2019-04-06T01:04:40.540Z,8.12
2019-04-06T01:05:40.528Z,8.08
2019-04-06T01:06:40.541Z,8.18
2019-04-06T01:07:40.537Z,8.16
2019-04-06T01:08:40.512Z,8.07
2019-04-06T01:09:40.488Z,8.15
2019-04-06T01:10:40.522Z,8.04
2019-04-06T01:11:40.467Z,8.10
2019-04-06T01:12:40.463Z,7.98
2019-04-06T01:13:40.461Z,8.11
2019-04-06T01:14:40.463Z,8.01
2019-04-06T01:15:40.466Z,8.05
2019-04-06T01:16:40.410Z,8.11
2019-04-06T01:17:40.402Z,8.12
2019-04-06T01:18:40.418Z,8.01
2019-04-06T01:19:40.404Z,8.12
2019-04-06T01:20:40.377Z,8.02
2019-04-06T01:21:40.372Z,8.12
2019-04-06T01:22:40.491Z,8.07
2019-04-06T01:23:40.365Z,8.05
2019-04-06T01:24:40.380Z,8.08
2019-04-06T01:25:40.328Z,8.10
2019-04-06T01:26:40.310Z,8.04
2019-04-06T01:27:40.308Z,8.07
2019-04-06T01:28:40.312Z,8.11
2019-04-06T01:29:40.270Z,8.07
2019-04-06T01:30:40.275Z,8.16
2019-04-06T01:31:40.254Z,8.05
2019-04-06T01:32:40.331Z,8.11
2019-04-06T01:33:40.268Z,8.12
2019-04-06T01:34:40.224Z,8.18
2019-04-06T01:35:40.215Z,8.10
2019-04-06T01:36:40.205Z,8.10
2019-04-06T01:37:40.198Z,8.18
2019-04-06T01:38:40.179Z,8.15
2019-04-06T01:39:40.170Z,8.05
2019-04-06T01:40:40.179Z,8.11
2019-04-06T01:41:40.145Z,8.10
2019-04-06T01:42:40.227Z,8.12
2019-04-06T01:43:40.118Z,8.11
2019-04-06T01:44:40.167Z,8.16
2019-04-06T01:45:40.105Z,8.07
2019-04-06T01:46:40.097Z,8.04
2019-04-06T01:47:40.155Z,8.10
2019-04-06T01:48:40.087Z,8.01
2019-04-06T01:49:40.067Z,8.19
2019-04-06T01:50:40.069Z,8.20
2019-04-06T01:51:40.050Z,8.01
2019-04-06T01:52:40.050Z,8.11
2019-04-06T01:53:40.030Z,8.16
2019-04-06T01:54:40.032Z,8.05
2019-04-06T01:55:39.998Z,8.12
2019-04-06T01:56:40.026Z,8.05
2019-04-06T01:57:39.983Z,8.16
2019-04-06T01:58:39.966Z,8.05
2019-04-06T01:59:39.970Z,8.18
2019-04-06T02:00:39.953Z,8.15
2019-04-06T02:01:39.939Z,8.16
2019-04-06T02:02:39.931Z,8.12
2019-04-06T02:03:39.911Z,8.18
2019-04-06T02:04:39.904Z,8.20
2019-04-06T02:05:39.938Z,8.11
2019-04-06T02:06:39.891Z,8.08
2019-04-06T02:07:39.882Z,8.04
2019-04-06T02:08:39.858Z,8.20
2019-04-06T02:09:39.852Z,8.07
2019-04-06T02:10:39.837Z,8.11
2019-04-06T02:11:39.836Z,8.08
2019-04-06T02:12:39.827Z,8.18
2019-04-06T02:13:39.900Z,8.20
2019-04-06T02:14:39.788Z,8.10
2019-04-06T02:15:39.767Z,8.08
2019-04-06T02:16:39.782Z,8.08
2019-04-06T02:17:39.771Z,8.10
2019-04-06T02:18:39.752Z,8.08
2019-04-06T02:19:39.753Z,8.12
2019-04-06T02:20:39.713Z,8.10
2019-04-06T02:21:39.716Z,8.11
2019-04-06T02:22:39.722Z,8.10
2019-04-06T02:23:39.680Z,8.08
2019-04-06T02:24:39.676Z,8.11
2019-04-06T02:25:39.674Z,8.12
2019-04-06T02:26:39.665Z,8.11
2019-04-06T02:27:39.637Z,8.08
2019-04-06T02:28:39.664Z,8.12
2019-04-06T02:29:39.629Z,8.10
2019-04-06T02:30:39.613Z,7.95
2019-04-06T02:31:39.770Z,7.93
2019-04-06T02:32:39.696Z,7.86
2019-04-06T02:33:39.577Z,7.90
2019-04-06T02:34:39.593Z,7.80
2019-04-06T02:35:39.599Z,7.74
2019-04-06T02:36:39.739Z,7.77
2019-04-06T02:37:39.538Z,7.64
2019-04-06T02:38:39.573Z,7.61
2019-04-06T02:39:39.529Z,7.52
2019-04-06T02:40:39.516Z,7.48
2019-04-06T02:41:39.501Z,7.37
2019-04-06T02:42:39.513Z,7.39
2019-04-06T02:43:39.510Z,7.32
2019-04-06T02:44:39.469Z,7.34
2019-04-06T02:45:39.491Z,7.31
2019-04-06T02:46:39.681Z,7.27
2019-04-06T02:47:39.446Z,7.24
2019-04-06T02:48:39.475Z,7.27
2019-04-06T02:49:39.419Z,7.20
2019-04-06T02:50:39.398Z,7.10
2019-04-06T02:51:39.470Z,7.24
2019-04-06T02:52:39.398Z,7.20
2019-04-06T02:53:39.363Z,7.16
2019-04-06T02:54:39.351Z,7.05
2019-04-06T02:55:39.469Z,7.07
2019-04-06T02:56:46.644Z,7.03
2019-04-06T02:57:40.343Z,7.05
2019-04-06T02:58:39.363Z,7.07
2019-04-06T02:59:39.295Z,7.06
2019-04-06T03:00:39.298Z,7.05
2019-04-06T03:01:39.277Z,7.06
2019-04-06T03:02:39.284Z,6.95
2019-04-06T03:03:39.389Z,6.91
2019-04-06T03:04:39.239Z,6.95
2019-04-06T03:05:39.264Z,6.92
2019-04-06T03:06:39.233Z,6.95
2019-04-06T03:07:39.213Z,6.92
2019-04-06T03:08:39.253Z,6.97
2019-04-06T03:09:39.192Z,6.92
2019-04-06T03:10:39.192Z,6.92
2019-04-06T03:11:39.180Z,6.99
2019-04-06T03:12:39.185Z,6.91
2019-04-06T03:13:39.161Z,6.97
2019-04-06T03:14:39.152Z,6.94
2019-04-06T03:15:39.159Z,6.98
2019-04-06T03:16:39.129Z,6.80
2019-04-06T03:17:39.132Z,6.80
2019-04-06T03:18:39.141Z,6.79
2019-04-06T03:19:39.083Z,6.91
2019-04-06T03:20:39.093Z,7.05
2019-04-06T03:21:39.072Z,6.91
2019-04-06T03:22:39.084Z,6.95
2019-04-06T03:23:50.192Z,6.92
2019-04-06T03:24:40.269Z,6.95
2019-04-06T03:25:39.028Z,7.02
2019-04-06T03:26:39.023Z,6.95
2019-04-06T03:27:39.020Z,6.99
2019-04-06T03:28:39.000Z,6.94
2019-04-06T03:29:38.989Z,6.89
2019-04-06T03:30:38.984Z,6.97
2019-04-06T03:31:39.042Z,6.98
2019-04-06T03:32:39.029Z,6.85
2019-04-06T03:33:38.977Z,6.92
2019-04-06T03:34:39.003Z,6.92
2019-04-06T03:35:45.462Z,6.99
2019-04-06T03:36:39.902Z,6.92
2019-04-06T03:37:38.904Z,6.95
2019-04-06T03:38:38.938Z,6.95
2019-04-06T03:39:39.051Z,6.92
2019-04-06T03:40:38.885Z,6.97
2019-04-06T03:41:38.889Z,6.87
2019-04-06T03:42:38.865Z,6.85
2019-04-06T03:43:38.849Z,6.84
2019-04-06T03:44:38.817Z,6.81
2019-04-06T03:45:38.810Z,6.77
2019-04-06T03:46:38.869Z,6.69
2019-04-06T03:47:38.803Z,6.71
2019-04-06T03:48:38.776Z,6.76
2019-04-06T03:49:38.762Z,6.73
2019-04-06T03:50:38.828Z,6.73
2019-04-06T03:51:38.737Z,6.71
2019-04-06T03:52:38.738Z,6.64
2019-04-06T03:53:38.838Z,6.74
2019-04-06T03:54:38.713Z,6.77
2019-04-06T03:55:38.697Z,6.76
2019-04-06T03:56:38.676Z,6.76
2019-04-06T03:57:38.680Z,6.71
2019-04-06T03:58:38.663Z,6.64
2019-04-06T03:59:38.690Z,6.70
2019-04-06T04:00:38.631Z,6.66
2019-04-06T04:01:38.708Z,6.59
2019-04-06T04:02:38.632Z,6.55
2019-04-06T04:03:38.626Z,6.62
2019-04-06T04:04:38.611Z,6.58
2019-04-06T04:05:38.680Z,6.52
2019-04-06T04:06:38.574Z,6.40
2019-04-06T04:07:38.649Z,6.44
2019-04-06T04:08:38.560Z,6.46
2019-04-06T04:09:38.557Z,6.40
2019-04-06T04:10:38.539Z,6.46
2019-04-06T04:11:38.523Z,6.25
2019-04-06T04:12:38.523Z,6.21
2019-04-06T04:13:38.786Z,6.22
2019-04-06T04:14:38.540Z,6.18
2019-04-06T04:15:38.472Z,6.06
2019-04-06T04:16:38.466Z,6.06
2019-04-06T04:17:38.491Z,6.12
2019-04-06T04:18:38.446Z,6.11
2019-04-06T04:19:38.430Z,6.11
2019-04-06T04:20:38.424Z,6.12
2019-04-06T04:21:38.423Z,6.21
2019-04-06T04:22:38.456Z,6.17
2019-04-06T04:23:38.645Z,6.18
2019-04-06T04:24:38.372Z,6.17
2019-04-06T04:25:38.381Z,6.19
2019-04-06T04:26:38.563Z,6.19
2019-04-06T04:27:38.458Z,6.19
2019-04-06T04:28:38.347Z,6.27
2019-04-06T04:29:38.325Z,6.21
2019-04-06T04:30:38.309Z,6.19
2019-04-06T04:31:38.356Z,6.18
2019-04-06T04:32:38.333Z,6.19
2019-04-06T04:33:38.278Z,6.25
2019-04-06T04:34:38.270Z,6.25
2019-04-06T04:35:38.311Z,6.30
2019-04-06T04:36:38.317Z,6.27
2019-04-06T04:37:38.513Z,6.33
2019-04-06T04:38:38.259Z,6.37
2019-04-06T04:39:38.210Z,6.44
2019-04-06T04:40:38.210Z,6.48
2019-04-06T04:41:39.870Z,6.55
2019-04-06T04:42:38.185Z,6.48
2019-04-06T04:43:38.173Z,6.62
2019-04-06T04:44:38.189Z,6.56
2019-04-06T04:45:38.147Z,6.58
2019-04-06T04:46:38.147Z,6.67
2019-04-06T04:47:38.199Z,6.64
2019-04-06T04:48:38.138Z,6.64
2019-04-06T04:49:38.123Z,6.70
2019-04-06T04:50:38.112Z,6.59
2019-04-06T04:51:38.095Z,6.67
2019-04-06T04:52:38.076Z,6.66
2019-04-06T04:53:38.067Z,6.64
2019-04-06T04:54:38.087Z,6.76
2019-04-06T04:55:38.047Z,6.70
2019-04-06T04:56:38.039Z,6.73
2019-04-06T04:57:40.789Z,6.74
2019-04-06T04:58:38.015Z,6.74
2019-04-06T04:59:38.020Z,6.73
2019-04-06T05:00:37.993Z,6.66
2019-04-06T05:01:38.362Z,6.69
2019-04-06T05:02:37.971Z,6.67
2019-04-06T05:03:37.962Z,6.69
2019-04-06T05:04:37.966Z,6.73
2019-04-06T05:05:37.929Z,6.76
2019-04-06T05:06:37.926Z,6.76
2019-04-06T05:07:37.916Z,6.70
2019-04-06T05:08:37.910Z,6.76
2019-04-06T05:09:37.904Z,6.67
2019-04-06T05:10:37.882Z,6.71
2019-04-06T05:11:37.864Z,6.76
2019-04-06T05:12:37.869Z,6.77
2019-04-06T05:13:37.870Z,6.71
2019-04-06T05:14:37.850Z,6.74
2019-04-06T05:15:37.839Z,6.87
2019-04-06T05:16:37.880Z,6.87
2019-04-06T05:17:37.805Z,6.85
2019-04-06T05:18:37.801Z,6.76
2019-04-06T05:19:37.793Z,6.85
2019-04-06T05:20:37.823Z,6.88
2019-04-06T05:21:37.762Z,6.80
2019-04-06T05:22:37.766Z,6.84
2019-04-06T05:23:37.737Z,6.94
2019-04-06T05:24:37.742Z,6.97
2019-04-06T05:25:37.729Z,6.95
2019-04-06T05:26:38.397Z,6.94
2019-04-06T05:27:37.709Z,7.03
2019-04-06T05:28:37.688Z,7.03
2019-04-06T05:29:37.773Z,7.07
2019-04-06T05:30:37.708Z,7.06
2019-04-06T05:31:37.672Z,7.16
2019-04-06T05:32:37.660Z,7.09
2019-04-06T05:33:37.646Z,7.10
2019-04-06T05:34:37.650Z,7.30
2019-04-06T05:35:37.623Z,7.27
2019-04-06T05:36:37.616Z,7.27
2019-04-06T05:37:37.608Z,7.25
2019-04-06T05:38:37.585Z,7.32
2019-04-06T05:39:37.723Z,7.32
2019-04-06T05:40:37.661Z,7.39
2019-04-06T05:41:37.553Z,7.45
2019-04-06T05:42:37.756Z,7.57
2019-04-06T05:43:37.528Z,7.52
2019-04-06T05:44:37.686Z,7.58
2019-04-06T05:45:37.509Z,7.49
2019-04-06T05:46:37.663Z,7.69
2019-04-06T05:47:37.504Z,7.74
2019-04-06T05:48:37.664Z,7.75
2019-04-06T05:49:37.462Z,7.77
2019-04-06T05:50:37.457Z,7.80
2019-04-06T05:51:37.455Z,7.90
2019-04-06T05:52:37.460Z,8.02
2019-04-06T05:53:37.627Z,7.98
2019-04-06T05:54:37.751Z,8.07
2019-04-06T05:55:37.424Z,8.02
2019-04-06T05:56:37.408Z,8.16
2019-04-06T05:57:37.867Z,8.10
2019-04-06T05:58:39.995Z,8.19
2019-04-06T05:59:39.881Z,8.33
2019-04-06T06:00:39.962Z,8.36
2019-04-06T06:01:40.340Z,8.43
2019-04-06T06:02:40.325Z,8.47
2019-04-06T06:03:40.107Z,8.50
2019-04-06T06:04:40.185Z,8.53
2019-04-06T06:05:40.267Z,8.74
2019-04-06T06:06:37.285Z,8.68
2019-04-06T06:07:37.298Z,8.74
2019-04-06T06:08:37.265Z,8.66
2019-04-06T06:09:37.300Z,8.74
2019-04-06T06:10:38.380Z,8.83
2019-04-06T06:11:37.244Z,8.80
2019-04-06T06:12:37.215Z,8.91
2019-04-06T06:13:39.308Z,8.92
2019-04-06T06:14:37.306Z,9.05
2019-04-06T06:15:37.204Z,9.08
2019-04-06T06:16:37.214Z,9.20
2019-04-06T06:17:37.161Z,9.20
2019-04-06T06:18:37.152Z,9.23
2019-04-06T06:19:37.420Z,9.26
2019-04-06T06:20:37.133Z,9.40
2019-04-06T06:21:37.128Z,9.35
2019-04-06T06:22:37.142Z,9.39
2019-04-06T06:23:37.103Z,9.35
2019-04-06T06:24:37.107Z,9.42
2019-04-06T06:25:37.269Z,9.57
2019-04-06T06:26:37.069Z,9.56
2019-04-06T06:27:37.257Z,9.72
2019-04-06T06:28:37.050Z,9.65
2019-04-06T06:29:37.036Z,9.68
2019-04-06T06:30:37.058Z,10.01
2019-04-06T06:31:37.012Z,10.07
2019-04-06T06:32:37.029Z,10.17
2019-04-06T06:33:36.994Z,10.15
2019-04-06T06:34:37.181Z,10.26
2019-04-06T06:35:36.965Z,10.14
2019-04-06T06:36:36.981Z,10.34
2019-04-06T06:37:37.175Z,10.51
2019-04-06T06:38:38.998Z,10.53
2019-04-06T06:39:37.120Z,10.66
2019-04-06T06:40:36.934Z,10.74
2019-04-06T06:41:36.903Z,10.91
2019-04-06T06:42:37.100Z,11.14
2019-04-06T06:43:36.893Z,11.28
2019-04-06T06:44:36.884Z,11.29
2019-04-06T06:45:36.935Z,11.33
2019-04-06T06:46:36.863Z,11.25
2019-04-06T06:47:36.840Z,11.19
2019-04-06T06:48:36.834Z,11.15
2019-04-06T06:49:36.818Z,11.19
2019-04-06T06:50:36.823Z,11.17
2019-04-06T06:51:36.811Z,11.27
2019-04-06T06:52:36.785Z,11.22
2019-04-06T06:53:36.784Z,11.32
2019-04-06T06:54:36.768Z,11.36
2019-04-06T06:55:36.779Z,11.36
2019-04-06T06:56:36.758Z,11.24
2019-04-06T06:57:36.735Z,11.14
2019-04-06T06:58:36.770Z,10.94
2019-04-06T06:59:36.730Z,10.91
2019-04-06T07:00:36.729Z,11.06
2019-04-06T07:01:36.696Z,11.06
2019-04-06T07:02:36.677Z,11.17
2019-04-06T07:03:36.677Z,11.27
2019-04-06T07:04:36.738Z,11.51
2019-04-06T07:05:36.641Z,11.75
2019-04-06T07:06:36.659Z,11.96
2019-04-06T07:07:36.632Z,12.21
2019-04-06T07:08:36.616Z,12.38
2019-04-06T07:09:36.603Z,12.41
2019-04-06T07:10:36.588Z,12.42
2019-04-06T07:11:36.599Z,12.42
2019-04-06T07:12:36.577Z,12.42
2019-04-06T07:13:36.753Z,12.56
2019-04-06T07:14:36.559Z,12.64
2019-04-06T07:15:36.555Z,12.89
2019-04-06T07:16:36.529Z,12.90
2019-04-06T07:17:36.751Z,12.86
2019-04-06T07:18:36.530Z,12.89
2019-04-06T07:19:36.513Z,12.70
2019-04-06T07:20:36.486Z,12.50
2019-04-06T07:21:36.472Z,12.38
2019-04-06T07:22:36.720Z,12.41
2019-04-06T07:23:36.476Z,12.39
2019-04-06T07:24:36.446Z,12.45
2019-04-06T07:25:36.549Z,12.52
2019-04-06T07:26:36.415Z,12.70
2019-04-06T07:27:36.407Z,12.83
2019-04-06T07:28:38.880Z,12.68
2019-04-06T07:29:36.402Z,12.59
2019-04-06T07:30:36.374Z,12.72
2019-04-06T07:31:36.368Z,12.46
2019-04-06T07:32:36.371Z,12.62
2019-04-06T07:33:36.353Z,12.50
2019-04-06T07:34:36.338Z,12.57
2019-04-06T07:35:36.325Z,12.74
2019-04-06T07:36:36.316Z,12.90
2019-04-06T07:37:36.575Z,13.41
2019-04-06T07:38:37.933Z,14.06
2019-04-06T07:39:36.273Z,14.45
2019-04-06T07:40:36.325Z,14.89
2019-04-06T07:41:36.443Z,15.38
2019-04-06T07:42:36.279Z,15.86
2019-04-06T07:43:36.292Z,16.25
2019-04-06T07:44:36.290Z,16.58
2019-04-06T07:45:36.340Z,16.50
2019-04-06T07:46:36.198Z,16.96
2019-04-06T07:47:36.217Z,16.60
2019-04-06T07:48:36.445Z,16.34
2019-04-06T07:49:36.191Z,16.66
2019-04-06T07:50:36.232Z,17.26
2019-04-06T07:51:36.139Z,17.59
2019-04-06T07:52:36.352Z,17.84
2019-04-06T07:53:36.123Z,18.42
2019-04-06T07:54:36.156Z,19.04
2019-04-06T07:55:36.298Z,18.91
2019-04-06T07:56:36.088Z,18.17
2019-04-06T07:57:36.077Z,18.63
2019-04-06T07:58:47.148Z,18.87
2019-04-06T07:59:37.056Z,19.02
2019-04-06T08:00:36.050Z,18.78
2019-04-06T08:01:36.087Z,18.82
2019-04-06T08:02:36.025Z,18.84
2019-04-06T08:03:36.053Z,18.70
2019-04-06T08:04:36.112Z,18.91
2019-04-06T08:05:35.993Z,19.25
2019-04-06T08:06:36.005Z,19.84
2019-04-06T08:07:36.040Z,19.86
2019-04-06T08:08:35.960Z,20.13
2019-04-06T08:09:35.973Z,19.78
2019-04-06T08:10:35.970Z,19.98
2019-04-06T08:11:35.967Z,19.91
2019-04-06T08:12:35.936Z,20.20
2019-04-06T08:13:35.999Z,20.32
2019-04-06T08:14:35.908Z,19.92
2019-04-06T08:15:35.936Z,19.84
2019-04-06T08:16:35.879Z,19.31
2019-04-06T08:17:35.894Z,19.29
2019-04-06T08:18:35.950Z,19.51
2019-04-06T08:19:35.867Z,19.50
2019-04-06T08:20:35.836Z,19.23
2019-04-06T08:21:35.828Z,19.32
2019-04-06T08:22:35.909Z,19.56
2019-04-06T08:23:35.802Z,18.33
2019-04-06T08:24:35.810Z,18.05
2019-04-06T08:25:35.821Z,17.79
2019-04-06T08:26:35.928Z,18.35
2019-04-06T08:27:35.835Z,19.29
2019-04-06T08:28:35.871Z,19.29
2019-04-06T08:29:35.808Z,19.39
2019-04-06T08:30:44.686Z,19.47
2019-04-06T08:31:36.721Z,19.13
2019-04-06T08:32:35.710Z,18.87
2019-04-06T08:33:35.702Z,19.14
2019-04-06T08:34:35.855Z,19.84
2019-04-06T08:35:35.805Z,21.09
2019-04-06T08:36:35.737Z,22.57
2019-04-06T08:37:35.659Z,22.57
2019-04-06T08:38:35.820Z,22.52
2019-04-06T08:39:35.650Z,21.59
2019-04-06T08:40:35.649Z,22.31
2019-04-06T08:41:35.609Z,23.58
2019-04-06T08:42:35.605Z,24.21
2019-04-06T08:43:35.596Z,24.16
2019-04-06T08:44:35.890Z,23.70
2019-04-06T08:45:35.589Z,23.43
2019-04-06T08:46:35.580Z,23.80
2019-04-06T08:47:35.586Z,22.67
2019-04-06T08:48:35.537Z,21.67
2019-04-06T08:49:35.558Z,20.76
2019-04-06T08:50:35.521Z,20.94
2019-04-06T08:51:35.555Z,21.31
2019-04-06T08:52:35.561Z,20.80
2019-04-06T08:53:35.484Z,20.42
2019-04-06T08:54:35.473Z,21.10
2019-04-06T08:55:35.601Z,22.75
2019-04-06T08:56:35.457Z,23.72
2019-04-06T08:57:35.468Z,23.91
2019-04-06T08:58:35.639Z,22.49
2019-04-06T08:59:35.445Z,22.37
2019-04-06T09:00:35.662Z,22.02
2019-04-06T09:01:35.763Z,21.27
2019-04-06T09:02:35.414Z,21.21
2019-04-06T09:03:35.652Z,20.95
2019-04-06T09:04:35.376Z,21.72
2019-04-06T09:05:35.373Z,22.57
2019-04-06T09:06:35.354Z,23.31
2019-04-06T09:07:35.353Z,21.67
2019-04-06T09:08:35.635Z,21.69
2019-04-06T09:09:35.323Z,22.33
2019-04-06T09:10:35.312Z,23.07
2019-04-06T09:11:35.307Z,22.72
2019-04-06T09:12:35.314Z,22.43
2019-04-06T09:13:35.276Z,22.54
2019-04-06T09:14:35.274Z,21.82
2019-04-06T09:15:35.300Z,19.87
2019-04-06T09:16:35.247Z,19.87
2019-04-06T09:17:35.256Z,19.61
2019-04-06T09:18:35.248Z,21.07
2019-04-06T09:19:35.519Z,22.70
2019-04-06T09:20:35.239Z,23.91
2019-04-06T09:21:35.294Z,25.10
2019-04-06T09:22:35.222Z,25.72
2019-04-06T09:23:35.268Z,25.90
2019-04-06T09:24:35.182Z,26.15
2019-04-06T09:25:35.174Z,24.95
2019-04-06T09:26:35.146Z,24.16
2019-04-06T09:27:35.179Z,23.88
2019-04-06T09:28:35.243Z,23.97
2019-04-06T09:29:35.188Z,24.93
2019-04-06T09:30:35.123Z,25.54
2019-04-06T09:31:35.107Z,24.52
2019-04-06T09:32:35.180Z,23.16
2019-04-06T09:33:35.075Z,22.79
2019-04-06T09:34:35.232Z,22.58
2019-04-06T09:35:35.095Z,22.52
2019-04-06T09:36:35.143Z,23.23
2019-04-06T09:37:35.040Z,24.53
2019-04-06T09:38:35.065Z,26.01
2019-04-06T09:39:35.024Z,27.50
2019-04-06T09:40:35.009Z,26.67
2019-04-06T09:41:35.026Z,24.78
2019-04-06T09:42:35.255Z,23.42
2019-04-06T09:43:34.975Z,22.10
2019-04-06T09:44:35.301Z,22.80
2019-04-06T09:45:34.999Z,24.83
2019-04-06T09:46:34.937Z,25.39
2019-04-06T09:47:34.950Z,24.96
2019-04-06T09:48:34.997Z,25.09
2019-04-06T09:49:34.913Z,24.84
2019-04-06T09:50:34.922Z,24.32
2019-04-06T09:51:34.913Z,24.62
2019-04-06T09:52:34.882Z,23.85
2019-04-06T09:53:34.866Z,24.43
2019-04-06T09:54:34.864Z,23.91
2019-04-06T09:55:35.124Z,24.71
2019-04-06T09:56:34.966Z,25.69
2019-04-06T09:57:34.841Z,26.18
2019-04-06T09:58:34.815Z,26.65
2019-04-06T09:59:37.061Z,27.21
2019-04-06T10:00:34.809Z,27.19
2019-04-06T10:01:38.929Z,26.12
2019-04-06T10:02:34.816Z,25.64
2019-04-06T10:03:34.783Z,25.57
2019-04-06T10:04:34.758Z,25.08
2019-04-06T10:05:34.745Z,24.85
2019-04-06T10:06:34.739Z,24.49
2019-04-06T10:07:34.741Z,23.83
2019-04-06T10:08:34.758Z,23.68
2019-04-06T10:09:34.804Z,22.72
2019-04-06T10:10:34.875Z,22.90
2019-04-06T10:11:34.826Z,23.57
2019-04-06T10:12:34.691Z,24.10
2019-04-06T10:13:34.713Z,23.84
2019-04-06T10:14:34.661Z,24.57
2019-04-06T10:15:35.002Z,25.65
2019-04-06T10:16:34.888Z,25.72
2019-04-06T10:17:34.650Z,26.30
2019-04-06T10:18:34.627Z,26.57
2019-04-06T10:19:34.604Z,26.66
2019-04-06T10:20:34.596Z,26.10
2019-04-06T10:21:34.598Z,25.90
2019-04-06T10:22:34.896Z,25.67
2019-04-06T10:23:34.574Z,25.65
2019-04-06T10:24:34.560Z,25.13
2019-04-06T10:25:34.596Z,24.69
2019-04-06T10:26:34.549Z,24.69
2019-04-06T10:27:34.545Z,24.49
2019-04-06T10:28:34.655Z,24.39
2019-04-06T10:29:46.878Z,24.34
2019-04-06T10:30:35.582Z,24.49
2019-04-06T10:31:34.559Z,24.68
2019-04-06T10:32:34.477Z,24.57
2019-04-06T10:33:34.467Z,24.62
2019-04-06T10:34:34.652Z,24.39
2019-04-06T10:35:34.467Z,23.73
2019-04-06T10:36:34.636Z,22.95
2019-04-06T10:37:34.421Z,22.76
2019-04-06T10:38:34.422Z,22.09
2019-04-06T10:39:34.405Z,21.14
2019-04-06T10:40:34.402Z,21.52
2019-04-06T10:41:34.402Z,21.37
2019-04-06T10:42:34.389Z,21.98
2019-04-06T10:43:34.494Z,22.28
2019-04-06T10:44:34.360Z,22.61
2019-04-06T10:45:34.528Z,22.82
2019-04-06T10:46:34.344Z,21.69
2019-04-06T10:47:34.586Z,21.19
2019-04-06T10:48:34.325Z,20.88
2019-04-06T10:49:34.396Z,20.57
2019-04-06T10:50:34.286Z,19.83
2019-04-06T10:51:34.279Z,19.36
2019-04-06T10:52:34.276Z,18.85
2019-04-06T10:53:34.266Z,18.65
2019-04-06T10:54:34.543Z,18.66
2019-04-06T10:55:34.264Z,18.73
2019-04-06T10:56:34.238Z,18.90
2019-04-06T10:57:34.572Z,18.91
2019-04-06T10:58:34.270Z,19.08
2019-04-06T10:59:34.199Z,18.66
2019-04-06T11:00:34.254Z,18.41
2019-04-06T11:01:34.180Z,18.41
2019-04-06T11:02:34.208Z,18.21
2019-04-06T11:03:34.406Z,18.00
2019-04-06T11:04:34.155Z,18.00
2019-04-06T11:05:34.201Z,18.33
2019-04-06T11:06:34.134Z,18.37
2019-04-06T11:07:34.111Z,18.63
2019-04-06T11:08:34.111Z,18.55
2019-04-06T11:09:34.174Z,18.33
2019-04-06T11:10:34.076Z,17.93
2019-04-06T11:11:34.064Z,17.81
2019-04-06T11:12:34.415Z,17.87
2019-04-06T11:13:34.085Z,17.54
2019-04-06T11:14:34.030Z,17.43
2019-04-06T11:15:34.077Z,17.23
2019-04-06T11:16:34.013Z,16.96
2019-04-06T11:17:34.007Z,16.63
2019-04-06T11:18:34.010Z,16.46
2019-04-06T11:19:33.978Z,16.49
2019-04-06T11:20:34.246Z,16.61
2019-04-06T11:21:33.987Z,16.96
2019-04-06T11:22:33.943Z,17.19
2019-04-06T11:23:34.294Z,17.44
2019-04-06T11:24:33.952Z,17.46
2019-04-06T11:25:33.993Z,17.44
2019-04-06T11:26:34.235Z,17.43
2019-04-06T11:27:33.944Z,17.33
2019-04-06T11:28:33.881Z,17.33
2019-04-06T11:29:33.866Z,17.51
2019-04-06T11:30:33.918Z,17.15
2019-04-06T11:31:33.852Z,17.06
2019-04-06T11:32:33.838Z,16.68
2019-04-06T11:33:33.860Z,16.75
2019-04-06T11:34:33.810Z,16.57
2019-04-06T11:35:33.822Z,16.81
2019-04-06T11:36:33.797Z,16.94
2019-04-06T11:37:33.810Z,16.96
2019-04-06T11:38:33.779Z,16.94
2019-04-06T11:39:33.811Z,17.16
2019-04-06T11:40:33.790Z,17.28
2019-04-06T11:41:33.756Z,17.43
2019-04-06T11:42:33.926Z,17.33
2019-04-06T11:43:33.724Z,17.23
2019-04-06T11:44:33.709Z,17.03
2019-04-06T11:45:33.741Z,16.97
2019-04-06T11:46:33.699Z,17.04
2019-04-06T11:47:33.675Z,17.03
2019-04-06T11:48:33.756Z,17.12
2019-04-06T11:49:33.802Z,17.30
2019-04-06T11:50:33.683Z,17.12
2019-04-06T11:51:33.634Z,17.15
2019-04-06T11:52:33.717Z,17.34
2019-04-06T11:53:33.608Z,17.59
2019-04-06T11:54:33.599Z,17.51
2019-04-06T11:55:34.003Z,17.38
2019-04-06T11:56:33.856Z,17.52
2019-04-06T11:57:33.589Z,17.54
2019-04-06T11:58:33.649Z,17.33
2019-04-06T11:59:33.760Z,17.40
2019-04-06T12:00:33.783Z,17.46
2019-04-06T12:01:33.668Z,17.54
2019-04-06T12:02:33.522Z,17.63
2019-04-06T12:03:33.526Z,17.71
2019-04-06T12:04:33.501Z,17.75
2019-04-06T12:05:33.561Z,17.74
2019-04-06T12:06:33.633Z,17.46
2019-04-06T12:07:33.487Z,17.52
2019-04-06T12:08:33.629Z,17.71
2019-04-06T12:09:33.691Z,17.78
2019-04-06T12:10:33.437Z,17.79
2019-04-06T12:11:33.484Z,17.56
2019-04-06T12:12:33.750Z,17.30
2019-04-06T12:13:33.422Z,17.15
2019-04-06T12:14:33.417Z,17.22
2019-04-06T12:15:33.680Z,17.30
2019-04-06T12:16:33.377Z,17.26
2019-04-06T12:17:33.439Z,17.26
2019-04-06T12:18:33.345Z,17.33
2019-04-06T12:19:33.334Z,17.37
2019-04-06T12:20:33.347Z,17.26
2019-04-06T12:21:33.319Z,17.28
2019-04-06T12:22:33.331Z,17.28
2019-04-06T12:23:33.799Z,17.25
2019-04-06T12:24:33.699Z,17.16
2019-04-06T12:25:33.292Z,17.26
2019-04-06T12:26:33.349Z,17.34
2019-04-06T12:27:33.273Z,17.26
2019-04-06T12:28:33.352Z,17.30
2019-04-06T12:29:33.267Z,17.26
2019-04-06T12:30:38.588Z,17.52
2019-04-06T12:31:34.231Z,17.58
2019-04-06T12:32:33.471Z,17.64
2019-04-06T12:33:33.246Z,17.66
2019-04-06T12:34:33.176Z,17.72
2019-04-06T12:35:33.167Z,17.75
2019-04-06T12:36:33.271Z,17.82
2019-04-06T12:37:33.145Z,18.00
2019-04-06T12:38:33.370Z,18.05
2019-04-06T12:39:33.159Z,18.07
2019-04-06T12:40:33.346Z,18.03
2019-04-06T12:41:33.108Z,18.15
2019-04-06T12:42:33.113Z,18.36
2019-04-06T12:43:33.107Z,18.39
2019-04-06T12:44:33.254Z,18.37
2019-04-06T12:45:33.064Z,18.41
2019-04-06T12:46:33.062Z,18.70
2019-04-06T12:47:33.188Z,18.81
2019-04-06T12:48:33.059Z,18.81
2019-04-06T12:49:33.153Z,18.82
2019-04-06T12:50:33.008Z,19.04
2019-04-06T12:51:33.039Z,19.21
2019-04-06T12:52:33.415Z,19.47
2019-04-06T12:53:32.990Z,19.54
2019-04-06T12:54:32.960Z,19.63
2019-04-06T12:55:33.020Z,19.66
2019-04-06T12:56:33.004Z,19.48
2019-04-06T12:57:32.948Z,19.46
2019-04-06T12:58:32.931Z,19.40
2019-04-06T12:59:35.371Z,19.43
2019-04-06T13:00:32.922Z,19.41
2019-04-06T13:01:32.942Z,19.29
2019-04-06T13:02:32.873Z,19.26
2019-04-06T13:03:32.864Z,19.13
2019-04-06T13:04:32.853Z,18.88
2019-04-06T13:05:33.144Z,18.73